createdAt,value
2018-08-20T00:02:05.732Z,17.20
2018-08-20T00:04:39.617Z,17.10
2018-08-20T00:07:08.314Z,17.00
2018-08-20T00:09:42.329Z,16.90
2018-08-20T00:12:10.963Z,16.90
2018-08-20T00:14:39.565Z,16.80
2018-08-20T00:17:08.224Z,16.80
2018-08-20T00:19:36.953Z,16.70
2018-08-20T00:22:05.621Z,16.80
2018-08-20T00:24:34.204Z,16.90
2018-08-20T00:27:03.677Z,17.00
2018-08-20T00:29:35.645Z,17.10
2018-08-20T00:32:04.455Z,17.20
2018-08-20T00:34:33.073Z,17.30
2018-08-20T00:37:01.680Z,17.40
2018-08-20T00:39:30.299Z,17.60
2018-08-20T00:41:58.985Z,17.60
2018-08-20T00:44:27.588Z,17.60
2018-08-20T00:46:56.216Z,17.50
2018-08-20T00:49:24.809Z,17.50
2018-08-20T00:51:53.431Z,17.50
2018-08-20T00:54:22.029Z,17.30
2018-08-20T00:56:50.645Z,17.10
2018-08-20T00:59:19.251Z,16.90
2018-08-20T01:01:48.012Z,16.90
2018-08-20T01:04:16.590Z,16.80
2018-08-20T01:06:45.248Z,16.90
2018-08-20T01:09:13.853Z,16.70
2018-08-20T01:14:35.073Z,16.50
2018-08-20T01:17:03.728Z,16.40
2018-08-20T01:19:32.321Z,16.30
2018-08-20T01:22:01.099Z,16.20
2018-08-20T01:24:29.738Z,16.10
2018-08-20T01:26:58.324Z,16.00
2018-08-20T01:29:26.940Z,16.00
2018-08-20T01:31:55.593Z,15.90
2018-08-20T01:34:24.228Z,15.90
2018-08-20T01:36:52.826Z,15.80
2018-08-20T01:39:21.431Z,15.80
2018-08-20T01:41:50.061Z,15.80
2018-08-20T01:44:18.649Z,15.70
2018-08-20T01:46:47.252Z,15.70
2018-08-20T01:49:15.832Z,15.60
2018-08-20T01:51:44.461Z,15.60
2018-08-20T01:54:13.062Z,15.50
2018-08-20T01:56:41.669Z,15.50
2018-08-20T01:59:10.314Z,15.40
2018-08-20T02:01:38.976Z,15.40
2018-08-20T02:04:07.644Z,15.40
2018-08-20T02:06:36.292Z,15.40
2018-08-20T02:09:06.702Z,15.40
2018-08-20T02:11:35.333Z,15.40
2018-08-20T02:14:03.969Z,15.40
2018-08-20T02:16:32.627Z,15.40
2018-08-20T02:19:01.224Z,15.40
2018-08-20T02:21:29.845Z,15.30
2018-08-20T02:23:58.451Z,15.20
2018-08-20T02:26:27.072Z,15.10
2018-08-20T02:28:55.693Z,15.10
2018-08-20T02:31:24.309Z,15.20
2018-08-20T02:33:52.910Z,15.10
2018-08-20T02:36:21.572Z,15.00
2018-08-20T02:38:50.226Z,15.10
2018-08-20T02:41:18.880Z,15.10
2018-08-20T02:43:47.538Z,15.10
2018-08-20T02:46:16.677Z,15.10
2018-08-20T02:48:45.280Z,15.10
2018-08-20T02:51:13.910Z,15.00
2018-08-20T02:53:42.509Z,15.00
2018-08-20T02:56:11.155Z,15.00
2018-08-20T02:58:39.782Z,14.90
2018-08-20T03:01:08.989Z,14.80
2018-08-20T03:03:37.663Z,14.70
2018-08-20T03:06:06.395Z,14.80
2018-08-20T03:08:35.013Z,14.80
2018-08-20T03:11:03.604Z,14.70
2018-08-20T03:13:32.262Z,14.70
2018-08-20T03:16:00.858Z,14.70
2018-08-20T03:18:29.473Z,14.70
2018-08-20T03:20:58.071Z,14.70
2018-08-20T03:23:26.696Z,14.60
2018-08-20T03:25:55.298Z,14.60
2018-08-20T03:28:23.968Z,14.60
2018-08-20T03:30:52.600Z,14.60
2018-08-20T03:33:21.255Z,14.60
2018-08-20T03:35:49.920Z,14.50
2018-08-20T03:38:18.525Z,14.50
2018-08-20T03:40:47.133Z,14.50
2018-08-20T03:43:15.822Z,14.60
2018-08-20T03:45:44.458Z,14.50
2018-08-20T03:48:13.116Z,14.50
2018-08-20T03:50:41.805Z,14.50
2018-08-20T03:53:10.516Z,14.50
2018-08-20T03:55:39.134Z,14.40
2018-08-20T03:58:07.770Z,14.40
2018-08-20T04:00:36.377Z,14.50
2018-08-20T04:03:05.002Z,14.40
2018-08-20T04:05:33.597Z,14.40
2018-08-20T04:08:02.234Z,14.30
2018-08-20T04:10:30.823Z,14.40
2018-08-20T04:12:59.426Z,14.30
2018-08-20T04:15:28.018Z,14.30
2018-08-20T04:17:56.590Z,14.20
2018-08-20T04:20:25.189Z,14.30
2018-08-20T04:22:53.845Z,14.30
2018-08-20T04:25:22.469Z,14.30
2018-08-20T04:27:51.149Z,14.30
2018-08-20T04:30:19.755Z,14.20
2018-08-20T04:32:48.444Z,14.20
2018-08-20T04:35:17.065Z,14.20
2018-08-20T04:37:45.889Z,14.30
2018-08-20T04:40:14.513Z,14.30
2018-08-20T04:42:43.129Z,14.30
2018-08-20T04:45:11.811Z,14.30
2018-08-20T04:47:40.412Z,14.30
2018-08-20T04:50:10.696Z,14.20
2018-08-20T04:52:40.065Z,14.30
2018-08-20T04:55:08.901Z,14.30
2018-08-20T04:57:37.468Z,14.30
2018-08-20T05:00:08.274Z,14.40
2018-08-20T05:02:36.850Z,14.50
2018-08-20T05:05:05.578Z,14.40
2018-08-20T05:07:34.635Z,14.50
2018-08-20T05:10:03.325Z,14.50
2018-08-20T05:12:31.907Z,14.50
2018-08-20T05:15:00.556Z,14.60
2018-08-20T05:17:29.326Z,14.60
2018-08-20T05:19:57.981Z,14.70
2018-08-20T05:22:26.551Z,14.80
2018-08-20T05:24:55.164Z,14.80
2018-08-20T05:27:23.772Z,14.90
2018-08-20T05:29:52.392Z,14.90
2018-08-20T05:32:20.997Z,15.00
2018-08-20T05:34:49.866Z,15.00
2018-08-20T05:37:18.464Z,15.00
2018-08-20T05:39:47.075Z,15.00
2018-08-20T05:42:15.709Z,15.10
2018-08-20T05:44:44.389Z,15.10
2018-08-20T05:47:13.043Z,15.20
2018-08-20T05:49:41.672Z,15.20
2018-08-20T05:52:10.292Z,15.30
2018-08-20T05:54:38.897Z,15.40
2018-08-20T05:57:07.577Z,15.50
2018-08-20T05:59:36.213Z,15.50
2018-08-20T06:02:04.940Z,15.60
2018-08-20T06:04:33.612Z,15.80
2018-08-20T06:07:02.281Z,15.90
2018-08-20T06:09:30.889Z,15.90
2018-08-20T06:11:59.494Z,16.00
2018-08-20T06:14:28.125Z,16.00
2018-08-20T06:16:56.776Z,16.00
2018-08-20T06:19:25.475Z,16.10
2018-08-20T06:21:54.069Z,16.30
2018-08-20T06:24:22.710Z,16.40
2018-08-20T06:26:51.303Z,16.60
2018-08-20T06:29:19.934Z,16.70
2018-08-20T06:31:48.536Z,16.90
2018-08-20T06:34:17.162Z,17.10
2018-08-20T06:47:47.162Z,17.10
2018-08-20T06:50:16.164Z,17.90
2018-08-20T06:52:45.526Z,18.00
2018-08-20T06:55:15.364Z,18.10
2018-08-20T06:57:45.159Z,18.30
2018-08-20T07:00:29.725Z,18.40
2018-08-20T07:02:58.450Z,18.50
2018-08-20T07:05:27.275Z,18.60
2018-08-20T07:07:55.872Z,18.70
2018-08-20T07:10:24.874Z,18.90
2018-08-20T07:12:53.627Z,19.00
2018-08-20T07:15:22.241Z,19.10
2018-08-20T07:17:50.807Z,19.10
2018-08-20T07:20:19.382Z,19.30
2018-08-20T07:22:48.046Z,19.20
2018-08-20T07:25:16.633Z,19.40
2018-08-20T07:27:45.205Z,19.40
2018-08-20T07:30:13.758Z,19.50
2018-08-20T07:32:42.331Z,19.70
2018-08-20T07:35:10.944Z,19.90
2018-08-20T07:37:39.468Z,20.00
2018-08-20T07:40:08.665Z,20.00
2018-08-20T07:42:37.287Z,20.00
2018-08-20T07:45:05.948Z,20.20
2018-08-20T07:47:34.508Z,20.30
2018-08-20T07:50:03.159Z,20.50
2018-08-20T07:52:31.725Z,20.60
2018-08-20T07:55:00.303Z,21.10
2018-08-20T07:57:28.854Z,21.50
2018-08-20T07:59:57.533Z,22.00
2018-08-20T08:02:26.112Z,21.90
2018-08-20T08:04:54.725Z,21.70
2018-08-20T08:07:23.245Z,21.70
2018-08-20T08:09:51.861Z,21.90
2018-08-20T08:12:20.374Z,21.70
2018-08-20T08:14:49.006Z,21.70
2018-08-20T08:17:17.600Z,22.00
2018-08-20T08:19:46.297Z,21.90
2018-08-20T08:22:14.808Z,21.70
2018-08-20T08:24:43.282Z,21.40
2018-08-20T08:27:12.435Z,22.30
2018-08-20T08:29:41.027Z,22.00
2018-08-20T08:32:09.670Z,22.80
2018-08-20T08:34:38.264Z,23.10
2018-08-20T08:37:06.955Z,23.50
2018-08-20T08:39:35.510Z,23.80
2018-08-20T08:42:04.120Z,23.10
2018-08-20T08:44:32.742Z,23.10
2018-08-20T08:47:01.496Z,23.30
2018-08-20T08:49:30.249Z,23.10
2018-08-20T08:51:59.222Z,23.70
2018-08-20T08:54:27.757Z,24.10
2018-08-20T08:56:56.358Z,24.10
2018-08-20T08:59:24.977Z,24.20
2018-08-20T09:01:53.617Z,24.40
2018-08-20T09:04:22.168Z,24.70
2018-08-20T09:06:50.742Z,25.00
2018-08-20T09:09:19.390Z,23.70
2018-08-20T09:11:47.965Z,23.40
2018-08-20T09:14:16.561Z,23.80
2018-08-20T09:16:45.143Z,23.80
2018-08-20T09:19:13.732Z,23.50
2018-08-20T09:21:42.408Z,23.30
2018-08-20T09:24:11.041Z,23.10
2018-08-20T09:26:39.595Z,23.00
2018-08-20T09:29:08.156Z,23.60
2018-08-20T09:31:36.697Z,23.80
2018-08-20T09:34:05.244Z,23.60
2018-08-20T09:36:33.837Z,23.90
2018-08-20T09:39:02.572Z,23.50
2018-08-20T09:41:31.145Z,23.60
2018-08-20T09:43:59.699Z,23.70
2018-08-20T09:46:28.281Z,24.10
2018-08-20T09:48:56.919Z,24.50
2018-08-20T09:51:25.506Z,24.80
2018-08-20T09:53:54.036Z,24.80
2018-08-20T09:56:22.597Z,24.90
2018-08-20T09:58:51.137Z,25.70
2018-08-20T10:01:19.671Z,26.00
2018-08-20T10:03:48.190Z,25.10
2018-08-20T10:06:16.959Z,25.50
2018-08-20T10:08:45.518Z,26.00
2018-08-20T10:11:14.485Z,26.40
2018-08-20T10:13:43.032Z,26.40
2018-08-20T10:16:11.625Z,26.40
2018-08-20T10:18:40.297Z,26.00
2018-08-20T10:21:08.943Z,26.00
2018-08-20T10:23:37.598Z,26.20
2018-08-20T10:26:07.325Z,25.50
2018-08-20T10:28:35.948Z,25.60
2018-08-20T10:31:04.754Z,25.30
2018-08-20T10:33:33.309Z,25.40
2018-08-20T10:36:01.892Z,25.60
2018-08-20T10:38:30.485Z,25.60
2018-08-20T10:40:59.073Z,25.40
2018-08-20T10:43:27.625Z,25.30
2018-08-20T10:46:01.517Z,24.60
2018-08-20T10:48:30.075Z,24.70
2018-08-20T10:50:58.617Z,24.80
2018-08-20T10:53:27.221Z,25.10
2018-08-20T10:55:55.836Z,25.50
2018-08-20T10:58:24.533Z,25.10
2018-08-20T11:00:53.077Z,25.00
2018-08-20T11:03:21.712Z,24.90
2018-08-20T11:05:50.264Z,25.40
2018-08-20T11:08:19.085Z,24.70
2018-08-20T11:10:47.700Z,24.50
2018-08-20T11:13:16.234Z,24.60
2018-08-20T11:15:44.846Z,25.00
2018-08-20T11:18:13.481Z,25.20
2018-08-20T11:20:42.052Z,25.40
2018-08-20T11:23:10.673Z,25.40
2018-08-20T11:25:39.233Z,25.00
2018-08-20T11:28:07.885Z,25.30
2018-08-20T11:30:36.455Z,25.00
2018-08-20T11:33:05.056Z,24.90
2018-08-20T11:35:33.619Z,25.00
2018-08-20T11:38:02.233Z,24.90
2018-08-20T11:40:30.792Z,25.10
2018-08-20T11:42:59.400Z,25.30
2018-08-20T11:45:27.980Z,25.60
2018-08-20T11:47:56.825Z,25.40
2018-08-20T11:50:25.488Z,25.40
2018-08-20T11:52:54.098Z,25.30
2018-08-20T11:55:22.726Z,25.40
2018-08-20T11:57:51.343Z,25.40
2018-08-20T12:00:19.928Z,25.60
2018-08-20T12:02:48.573Z,25.40
2018-08-20T12:05:17.180Z,24.70
2018-08-20T12:07:45.878Z,25.40
2018-08-20T12:10:14.413Z,25.70
2018-08-20T12:12:43.081Z,25.90
2018-08-20T12:15:12.677Z,26.10
2018-08-20T12:17:42.333Z,26.20
2018-08-20T12:20:10.907Z,26.00
2018-08-20T12:22:40.196Z,25.90
2018-08-20T12:25:11.964Z,25.90
2018-08-20T12:27:40.576Z,25.90
2018-08-20T12:30:10.227Z,26.00
2018-08-20T12:32:38.840Z,26.50
2018-08-20T12:35:07.990Z,26.60
2018-08-20T12:37:37.765Z,26.90
2018-08-20T12:40:06.696Z,27.20
2018-08-20T12:42:35.245Z,27.00
2018-08-20T12:45:04.095Z,27.30
2018-08-20T12:47:32.710Z,27.50
2018-08-20T12:50:01.269Z,27.00
2018-08-20T12:52:29.836Z,27.00
2018-08-20T12:54:58.361Z,26.80
2018-08-20T12:57:26.965Z,26.40
2018-08-20T12:59:57.975Z,26.90
2018-08-20T13:02:26.666Z,27.00
2018-08-20T13:04:55.217Z,26.50
2018-08-20T13:07:23.880Z,26.50
2018-08-20T13:09:52.466Z,26.90
2018-08-20T13:12:21.037Z,26.80
2018-08-20T13:14:49.586Z,26.70
2018-08-20T13:17:18.584Z,26.80
2018-08-20T13:19:47.188Z,26.80
2018-08-20T13:22:15.721Z,26.70
2018-08-20T13:24:44.286Z,27.00
2018-08-20T13:27:12.825Z,27.00
2018-08-20T13:29:41.450Z,27.40
2018-08-20T13:32:10.144Z,27.60
2018-08-20T13:34:38.704Z,27.80
2018-08-20T13:37:07.373Z,27.80
2018-08-20T13:39:35.888Z,27.70
2018-08-20T13:42:04.537Z,27.80
2018-08-20T13:44:33.130Z,27.80
2018-08-20T13:47:01.717Z,27.50
2018-08-20T13:49:30.414Z,27.60
2018-08-20T13:51:59.570Z,27.30
2018-08-20T13:54:28.234Z,27.40
2018-08-20T13:56:56.821Z,26.80
2018-08-20T13:59:25.385Z,27.00
2018-08-20T14:01:53.944Z,26.80
2018-08-20T14:04:22.538Z,26.90
2018-08-20T14:06:51.125Z,27.30
2018-08-20T14:09:19.678Z,27.60
2018-08-20T14:11:48.204Z,27.80
2018-08-20T14:14:16.797Z,27.80
2018-08-20T14:16:45.407Z,27.40
2018-08-20T14:19:14.011Z,27.30
2018-08-20T14:21:42.619Z,27.40
2018-08-20T14:24:11.558Z,27.10
2018-08-20T14:26:40.133Z,27.00
2018-08-20T14:29:08.720Z,26.70
2018-08-20T14:52:53.669Z,27.80
2018-08-20T14:55:22.257Z,27.80
2018-08-20T14:57:50.849Z,27.80
2018-08-20T15:00:19.482Z,27.10
2018-08-20T15:02:48.070Z,26.90
2018-08-20T15:05:16.706Z,27.00
2018-08-20T15:07:45.310Z,27.20
2018-08-20T15:10:14.133Z,27.40
2018-08-20T15:12:42.700Z,27.00
2018-08-20T15:15:11.345Z,27.00
2018-08-20T15:17:39.970Z,27.20
2018-08-20T15:20:09.425Z,27.20
2018-08-20T15:22:38.664Z,27.30
2018-08-20T15:25:07.413Z,27.20
2018-08-20T15:27:35.986Z,26.90
2018-08-20T15:30:05.022Z,26.90
2018-08-20T15:32:33.666Z,26.90
2018-08-20T15:35:02.261Z,26.80
2018-08-20T15:37:30.816Z,27.00
2018-08-20T15:39:59.400Z,27.10
2018-08-20T15:42:28.005Z,27.40
2018-08-20T15:44:56.621Z,27.10
2018-08-20T15:47:25.224Z,27.10
2018-08-20T15:49:53.817Z,26.90
2018-08-20T15:52:22.406Z,26.80
2018-08-20T15:54:51.027Z,27.10
2018-08-20T15:57:19.606Z,26.90
2018-08-20T15:59:48.263Z,27.10
2018-08-20T16:04:52.064Z,26.90
2018-08-20T16:07:21.021Z,26.90
2018-08-20T16:09:49.705Z,26.90
2018-08-20T16:12:18.625Z,27.00
2018-08-20T16:14:47.282Z,27.00
2018-08-20T16:17:15.882Z,26.70
2018-08-20T16:19:44.466Z,26.80
2018-08-20T16:22:13.127Z,26.70
2018-08-20T16:24:41.694Z,26.50
2018-08-20T16:27:10.255Z,26.70
2018-08-20T16:29:38.845Z,26.70
2018-08-20T16:32:07.510Z,26.70
2018-08-20T16:34:36.165Z,26.60
2018-08-20T16:37:04.836Z,26.40
2018-08-20T16:39:33.454Z,26.40
2018-08-20T16:42:02.026Z,26.30
2018-08-20T16:44:30.617Z,26.20
2018-08-20T16:46:59.241Z,26.30
2018-08-20T16:49:27.900Z,26.20
2018-08-20T16:51:56.455Z,26.20
2018-08-20T16:54:25.093Z,26.10
2018-08-20T16:56:53.825Z,26.00
2018-08-20T16:59:22.440Z,26.00
2018-08-20T17:01:51.044Z,26.30
2018-08-20T17:04:33.591Z,26.70
2018-08-20T17:07:02.864Z,26.90
2018-08-20T17:09:31.418Z,26.70
2018-08-20T17:11:59.952Z,26.90
2018-08-20T17:14:28.577Z,27.10
2018-08-20T17:16:57.218Z,27.40
2018-08-20T17:19:25.873Z,27.20
2018-08-20T17:21:54.528Z,27.40
2018-08-20T17:24:28.927Z,27.30
2018-08-20T17:26:58.405Z,27.10
2018-08-20T17:29:27.074Z,27.10
2018-08-20T17:31:55.741Z,27.10
2018-08-20T17:34:24.490Z,26.70
2018-08-20T17:36:53.545Z,27.00
2018-08-20T17:39:22.222Z,26.80
2018-08-20T17:41:50.809Z,26.80
2018-08-20T17:44:22.189Z,26.30
2018-08-20T17:46:50.822Z,25.70
2018-08-20T17:49:24.733Z,25.20
2018-08-20T17:51:53.328Z,24.90
2018-08-20T17:54:21.937Z,24.50
2018-08-20T17:56:50.546Z,24.30
2018-08-20T17:59:19.293Z,24.20
2018-08-20T18:01:47.916Z,24.00
2018-08-20T18:04:18.364Z,23.90
2018-08-20T18:06:52.744Z,23.80
2018-08-20T18:09:21.384Z,23.80
2018-08-20T18:11:50.975Z,23.50
2018-08-20T18:14:21.380Z,23.30
2018-08-20T18:16:50.019Z,23.20
2018-08-20T18:19:18.710Z,23.10
2018-08-20T18:21:47.524Z,23.00
2018-08-20T18:24:18.115Z,22.80
2018-08-20T18:26:51.444Z,22.70
2018-08-20T18:29:20.091Z,22.60
2018-08-20T18:31:56.924Z,22.40
2018-08-20T18:34:25.487Z,22.30
2018-08-20T18:36:54.201Z,22.10
2018-08-20T18:39:22.796Z,22.10
2018-08-20T18:42:10.318Z,22.00
2018-08-20T18:44:39.010Z,21.90
2018-08-20T18:47:10.153Z,21.70
2018-08-20T18:49:44.075Z,21.60
2018-08-20T18:52:13.761Z,21.70
2018-08-20T18:54:44.577Z,21.70
2018-08-20T18:57:18.362Z,21.70
2018-08-20T18:59:47.015Z,21.60
2018-08-20T19:03:21.033Z,21.70
2018-08-20T19:05:52.745Z,21.60
2018-08-20T19:08:24.592Z,21.70
2018-08-20T19:10:53.231Z,21.60
2018-08-20T19:13:21.810Z,21.60
2018-08-20T19:15:51.284Z,21.50
2018-08-20T19:18:23.893Z,21.40
2018-08-20T19:20:52.470Z,21.30
2018-08-20T19:23:21.105Z,21.30
2018-08-20T19:25:49.814Z,21.20
2018-08-20T19:28:24.242Z,21.20
2018-08-20T19:30:54.097Z,21.10
2018-08-20T19:33:24.868Z,20.90
2018-08-20T19:35:54.389Z,20.70
2018-08-20T19:38:23.257Z,20.50
2018-08-20T19:41:00.549Z,20.50
2018-08-20T19:43:33.724Z,20.40
2018-08-20T19:46:02.342Z,20.20
2018-08-20T19:48:30.923Z,20.10
2018-08-20T19:50:59.510Z,20.20
2018-08-20T19:53:28.065Z,20.20
2018-08-20T19:55:56.633Z,20.30
2018-08-20T19:58:30.649Z,20.30
2018-08-20T20:01:24.360Z,20.30
2018-08-20T20:03:53.061Z,20.20
2018-08-20T20:06:21.684Z,20.10
2018-08-20T20:08:50.262Z,20.10
2018-08-20T20:11:24.341Z,20.30
2018-08-20T20:13:54.184Z,20.20
2018-08-20T20:16:23.150Z,20.20
2018-08-20T20:18:52.168Z,20.20
2018-08-20T20:21:21.661Z,20.20
2018-08-20T20:23:50.343Z,20.20
2018-08-20T20:26:19.081Z,20.20
2018-08-20T20:28:47.716Z,20.10
2018-08-20T20:31:16.309Z,20.10
2018-08-20T20:33:44.961Z,20.00
2018-08-20T20:36:19.047Z,20.00
2018-08-20T20:38:48.060Z,20.00
2018-08-20T20:41:16.620Z,20.00
2018-08-20T20:43:45.264Z,19.80
2018-08-20T20:46:13.948Z,19.60
2018-08-20T20:48:42.532Z,19.50
2018-08-20T20:51:11.163Z,19.50
2018-08-20T20:53:39.813Z,19.40
2018-08-20T20:56:08.558Z,19.30
2018-08-20T20:58:38.118Z,19.20
2018-08-20T21:01:08.146Z,19.20
2018-08-20T21:03:36.970Z,19.10
2018-08-20T21:06:06.277Z,19.10
2018-08-20T21:08:40.896Z,18.90
2018-08-20T21:11:10.868Z,18.80
2018-08-20T21:13:39.815Z,18.70
2018-08-20T21:16:22.852Z,18.70
2018-08-20T21:18:55.668Z,18.80
2018-08-20T21:21:24.854Z,18.90
2018-08-20T21:24:00.412Z,18.90
2018-08-20T21:26:30.087Z,18.80
2018-08-20T21:28:58.929Z,18.70
2018-08-20T21:31:29.747Z,18.60
2018-08-20T21:34:00.529Z,18.50
2018-08-20T21:36:29.292Z,18.40
2018-08-20T21:38:57.948Z,18.30
2018-08-20T21:41:27.933Z,18.30
2018-08-20T21:43:56.605Z,18.20
2018-08-20T21:46:25.190Z,18.20
2018-08-20T21:48:55.140Z,18.00
2018-08-20T21:51:26.120Z,17.90
2018-08-20T21:53:54.749Z,17.80
2018-08-20T21:56:23.428Z,17.80
2018-08-20T21:58:52.032Z,17.80
2018-08-20T22:01:20.783Z,17.80
2018-08-20T22:03:49.500Z,17.80
2018-08-20T22:06:18.380Z,17.80
2018-08-20T22:08:47.000Z,17.80
2018-08-20T22:11:16.864Z,17.90
2018-08-20T22:13:45.651Z,17.90
2018-08-20T22:16:18.531Z,17.80
2018-08-20T22:18:49.308Z,17.90
2018-08-20T22:21:18.592Z,17.80
2018-08-20T22:23:47.793Z,17.70
2018-08-20T22:26:19.082Z,17.70
2018-08-20T22:28:49.893Z,17.60
2018-08-20T22:31:18.568Z,17.60
2018-08-20T22:33:54.909Z,17.60
2018-08-20T22:36:23.841Z,17.50
2018-08-20T22:38:54.854Z,17.60
2018-08-20T22:41:24.576Z,17.60
2018-08-20T22:43:53.177Z,17.60
2018-08-20T22:46:22.790Z,17.60
2018-08-20T22:48:53.021Z,17.60
2018-08-20T22:51:22.805Z,17.60
2018-08-20T22:53:52.651Z,17.60
2018-08-20T22:56:36.470Z,17.60
2018-08-20T22:59:10.013Z,17.50
2018-08-20T23:01:38.635Z,17.50
2018-08-20T23:04:07.672Z,17.50
2018-08-20T23:06:36.324Z,17.60
2018-08-20T23:09:21.441Z,17.70
2018-08-20T23:11:50.021Z,17.70
2018-08-20T23:14:18.632Z,17.80
2018-08-20T23:16:50.248Z,17.80
2018-08-20T23:19:19.224Z,17.90
2018-08-20T23:21:48.617Z,17.80
2018-08-20T23:24:17.840Z,17.80
2018-08-20T23:26:46.413Z,17.80
2018-08-20T23:29:15.002Z,17.80
2018-08-20T23:31:43.579Z,17.90
2018-08-20T23:34:15.921Z,18.00
2018-08-20T23:36:44.529Z,18.10
2018-08-20T23:39:14.368Z,18.20
2018-08-20T23:41:42.936Z,18.10
2018-08-20T23:44:12.312Z,18.10
2018-08-20T23:46:44.101Z,18.20
2018-08-20T23:49:12.704Z,18.30
2018-08-20T23:51:41.281Z,18.30
2018-08-20T23:54:11.001Z,18.30
2018-08-20T23:56:39.605Z,18.30
2018-08-20T23:59:08.512Z,18.30
